sensor_id;sensor_type;location;lat;lon;timestamp;pressure;altitude;pressure_sealevel;temperature;humidity
20622;BME280;10470;42.670;23.354;2023-03-23T00:01:11;94723.75;;;7.22;100.00
20622;BME280;10470;42.670;23.354;2023-03-23T00:03:41;94721.59;;;7.30;100.00
20622;BME280;10470;42.670;23.354;2023-03-23T00:06:08;94719.88;;;7.36;100.00
20622;BME280;10470;42.670;23.354;2023-03-23T00:08:35;94712.53;;;7.37;100.00
20622;BME280;10470;42.670;23.354;2023-03-23T00:11:14;94723.94;;;7.44;100.00
20622;BME280;10470;42.670;23.354;2023-03-23T00:13:42;94710.59;;;7.21;100.00
20622;BME280;10470;42.670;23.354;2023-03-23T00:16:08;94717.47;;;7.26;100.00
20622;BME280;10470;42.670;23.354;2023-03-23T00:18:47;94730.00;;;7.19;100.00
20622;BME280;10470;42.670;23.354;2023-03-23T00:21:13;94721.13;;;7.19;100.00
20622;BME280;10470;42.670;23.354;2023-03-23T00:23:39;94723.41;;;7.20;100.00
20622;BME280;10470;42.670;23.354;2023-03-23T00:26:05;94736.09;;;7.23;100.00
20622;BME280;10470;42.670;23.354;2023-03-23T00:28:31;94734.00;;;7.15;100.00
20622;BME280;10470;42.670;23.354;2023-03-23T00:31:07;94739.59;;;7.08;100.00
20622;BME280;10470;42.670;23.354;2023-03-23T00:33:36;94745.69;;;7.12;100.00
20622;BME280;10470;42.670;23.354;2023-03-23T00:36:10;94746.63;;;7.05;100.00
20622;BME280;10470;42.670;23.354;2023-03-23T00:38:37;94746.78;;;7.14;100.00
20622;BME280;10470;42.670;23.354;2023-03-23T00:41:03;94752.22;;;7.14;100.00
20622;BME280;10470;42.670;23.354;2023-03-23T00:43:30;94757.63;;;7.14;100.00
20622;BME280;10470;42.670;23.354;2023-03-23T00:45:56;94754.81;;;7.18;100.00
20622;BME280;10470;42.670;23.354;2023-03-23T00:48:28;94758.25;;;7.06;100.00
20622;BME280;10470;42.670;23.354;2023-03-23T00:50:54;94759.31;;;6.92;100.00
20622;BME280;10470;42.670;23.354;2023-03-23T00:53:21;94761.63;;;6.93;100.00
20622;BME280;10470;42.670;23.354;2023-03-23T00:55:48;94760.59;;;7.04;100.00
20622;BME280;10470;42.670;23.354;2023-03-23T00:58:15;94758.78;;;7.13;100.00
20622;BME280;10470;42.670;23.354;2023-03-23T01:00:41;94762.59;;;7.16;100.00
20622;BME280;10470;42.670;23.354;2023-03-23T01:03:08;94771.59;;;7.29;100.00
20622;BME280;10470;42.670;23.354;2023-03-23T01:05:38;94760.66;;;7.33;100.00
20622;BME280;10470;42.670;23.354;2023-03-23T01:08:05;94761.47;;;7.46;100.00
20622;BME280;10470;42.670;23.354;2023-03-23T01:10:31;94758.09;;;7.42;100.00
20622;BME280;10470;42.670;23.354;2023-03-23T01:13:04;94762.13;;;7.50;100.00
20622;BME280;10470;42.670;23.354;2023-03-23T01:15:29;94758.97;;;7.52;100.00
20622;BME280;10470;42.670;23.354;2023-03-23T01:17:55;94751.34;;;7.63;100.00
20622;BME280;10470;42.670;23.354;2023-03-23T01:20:21;94752.16;;;7.31;100.00
20622;BME280;10470;42.670;23.354;2023-03-23T01:22:47;94753.97;;;7.21;100.00
20622;BME280;10470;42.670;23.354;2023-03-23T01:25:13;94741.41;;;6.98;100.00
20622;BME280;10470;42.670;23.354;2023-03-23T01:27:39;94744.72;;;7.18;100.00
20622;BME280;10470;42.670;23.354;2023-03-23T01:30:07;94743.19;;;6.88;100.00
20622;BME280;10470;42.670;23.354;2023-03-23T01:32:33;94738.59;;;6.85;100.00
20622;BME280;10470;42.670;23.354;2023-03-23T01:34:59;94736.38;;;7.13;100.00
20622;BME280;10470;42.670;23.354;2023-03-23T01:37:24;94728.34;;;7.09;100.00
20622;BME280;10470;42.670;23.354;2023-03-23T01:39:57;94726.47;;;6.90;100.00
20622;BME280;10470;42.670;23.354;2023-03-23T01:42:30;94726.69;;;6.83;100.00
20622;BME280;10470;42.670;23.354;2023-03-23T01:47:46;94725.13;;;6.82;100.00
20622;BME280;10470;42.670;23.354;2023-03-23T01:50:12;94723.38;;;6.91;100.00
20622;BME280;10470;42.670;23.354;2023-03-23T01:52:38;94717.84;;;6.95;100.00
20622;BME280;10470;42.670;23.354;2023-03-23T01:55:05;94715.66;;;7.06;100.00
20622;BME280;10470;42.670;23.354;2023-03-23T01:57:31;94714.31;;;6.98;100.00
20622;BME280;10470;42.670;23.354;2023-03-23T01:59:59;94704.81;;;7.06;100.00
20622;BME280;10470;42.670;23.354;2023-03-23T02:02:32;94715.72;;;7.19;100.00
20622;BME280;10470;42.670;23.354;2023-03-23T02:05:04;94712.66;;;7.17;100.00
20622;BME280;10470;42.670;23.354;2023-03-23T02:07:34;94708.41;;;7.32;100.00
20622;BME280;10470;42.670;23.354;2023-03-23T02:09:59;94721.25;;;7.44;100.00
20622;BME280;10470;42.670;23.354;2023-03-23T02:12:25;94710.91;;;7.39;100.00
20622;BME280;10470;42.670;23.354;2023-03-23T02:14:52;94713.81;;;7.32;100.00
20622;BME280;10470;42.670;23.354;2023-03-23T02:18:23;94718.22;;;7.26;100.00
20622;BME280;10470;42.670;23.354;2023-03-23T02:23:26;94721.44;;;7.21;100.00
20622;BME280;10470;42.670;23.354;2023-03-23T02:34:24;94723.66;;;7.55;100.00
20622;BME280;10470;42.670;23.354;2023-03-23T02:37:19;94717.66;;;7.48;100.00
20622;BME280;10470;42.670;23.354;2023-03-23T02:39:47;94724.78;;;7.41;100.00
20622;BME280;10470;42.670;23.354;2023-03-23T02:42:16;94723.69;;;7.39;100.00
20622;BME280;10470;42.670;23.354;2023-03-23T02:44:44;94735.31;;;7.39;100.00
20622;BME280;10470;42.670;23.354;2023-03-23T02:47:20;94743.91;;;7.21;100.00
20622;BME280;10470;42.670;23.354;2023-03-23T02:49:48;94745.00;;;7.08;100.00
20622;BME280;10470;42.670;23.354;2023-03-23T02:52:22;94752.88;;;7.18;100.00
20622;BME280;10470;42.670;23.354;2023-03-23T02:54:49;94752.31;;;7.11;100.00
20622;BME280;10470;42.670;23.354;2023-03-23T02:57:16;94755.00;;;7.11;100.00
20622;BME280;10470;42.670;23.354;2023-03-23T02:59:42;94756.88;;;7.14;100.00
20622;BME280;10470;42.670;23.354;2023-03-23T03:02:23;94760.34;;;6.98;100.00
20622;BME280;10470;42.670;23.354;2023-03-23T03:05:25;94766.94;;;6.97;100.00
20622;BME280;10470;42.670;23.354;2023-03-23T03:15:48;94781.91;;;6.69;100.00
20622;BME280;10470;42.670;23.354;2023-03-23T03:18:32;94790.22;;;6.62;100.00
20622;BME280;10470;42.670;23.354;2023-03-23T03:21:07;94792.97;;;6.58;100.00
20622;BME280;10470;42.670;23.354;2023-03-23T03:23:37;94793.44;;;6.56;100.00
20622;BME280;10470;42.670;23.354;2023-03-23T03:26:03;94787.22;;;6.56;100.00
20622;BME280;10470;42.670;23.354;2023-03-23T03:28:31;94789.53;;;6.74;100.00
20622;BME280;10470;42.670;23.354;2023-03-23T03:31:01;94792.03;;;6.48;100.00
20622;BME280;10470;42.670;23.354;2023-03-23T03:33:29;94794.44;;;6.63;100.00
20622;BME280;10470;42.670;23.354;2023-03-23T03:36:02;94798.66;;;6.64;100.00
20622;BME280;10470;42.670;23.354;2023-03-23T03:38:28;94796.81;;;6.77;100.00
20622;BME280;10470;42.670;23.354;2023-03-23T03:40:55;94793.78;;;6.75;100.00
20622;BME280;10470;42.670;23.354;2023-03-23T03:43:21;94799.09;;;6.78;100.00
20622;BME280;10470;42.670;23.354;2023-03-23T03:45:46;94791.22;;;6.68;100.00
20622;BME280;10470;42.670;23.354;2023-03-23T03:48:12;94794.09;;;6.77;100.00
20622;BME280;10470;42.670;23.354;2023-03-23T03:50:37;94795.72;;;6.91;100.00
20622;BME280;10470;42.670;23.354;2023-03-23T03:53:04;94797.84;;;6.83;100.00
20622;BME280;10470;42.670;23.354;2023-03-23T03:55:31;94790.38;;;6.71;100.00
20622;BME280;10470;42.670;23.354;2023-03-23T03:58:01;94783.94;;;6.65;100.00
20622;BME280;10470;42.670;23.354;2023-03-23T04:00:27;94786.16;;;6.70;100.00
20622;BME280;10470;42.670;23.354;2023-03-23T04:02:53;94792.25;;;6.74;100.00
20622;BME280;10470;42.670;23.354;2023-03-23T04:05:22;94798.00;;;6.60;100.00
20622;BME280;10470;42.670;23.354;2023-03-23T04:07:48;94787.00;;;6.67;100.00
20622;BME280;10470;42.670;23.354;2023-03-23T04:10:18;94787.75;;;6.67;100.00
20622;BME280;10470;42.670;23.354;2023-03-23T04:12:47;94777.09;;;6.76;100.00
20622;BME280;10470;42.670;23.354;2023-03-23T04:15:13;94762.19;;;6.68;100.00
20622;BME280;10470;42.670;23.354;2023-03-23T04:17:39;94776.44;;;6.89;100.00
20622;BME280;10470;42.670;23.354;2023-03-23T04:20:07;94779.47;;;6.91;100.00
20622;BME280;10470;42.670;23.354;2023-03-23T04:22:38;94786.75;;;6.77;100.00
20622;BME280;10470;42.670;23.354;2023-03-23T04:25:04;94785.66;;;6.75;100.00
20622;BME280;10470;42.670;23.354;2023-03-23T04:27:31;94787.09;;;6.96;100.00
20622;BME280;10470;42.670;23.354;2023-03-23T04:29:57;94786.16;;;6.86;100.00
20622;BME280;10470;42.670;23.354;2023-03-23T04:32:25;94800.13;;;6.85;100.00
20622;BME280;10470;42.670;23.354;2023-03-23T04:34:58;94792.84;;;6.82;100.00
20622;BME280;10470;42.670;23.354;2023-03-23T04:37:25;94798.25;;;6.82;100.00
20622;BME280;10470;42.670;23.354;2023-03-23T04:39:55;94792.06;;;6.97;100.00
20622;BME280;10470;42.670;23.354;2023-03-23T04:42:30;94800.56;;;6.83;100.00
20622;BME280;10470;42.670;23.354;2023-03-23T04:44:57;94797.66;;;6.74;100.00
20622;BME280;10470;42.670;23.354;2023-03-23T04:47:23;94799.44;;;6.64;100.00
20622;BME280;10470;42.670;23.354;2023-03-23T04:49:49;94796.22;;;6.69;100.00
20622;BME280;10470;42.670;23.354;2023-03-23T04:52:17;94806.13;;;6.76;100.00
20622;BME280;10470;42.670;23.354;2023-03-23T04:54:42;94806.13;;;6.76;100.00
20622;BME280;10470;42.670;23.354;2023-03-23T04:57:08;94811.63;;;6.72;100.00
20622;BME280;10470;42.670;23.354;2023-03-23T04:59:34;94810.88;;;6.72;100.00
20622;BME280;10470;42.670;23.354;2023-03-23T05:01:59;94813.66;;;6.85;100.00
20622;BME280;10470;42.670;23.354;2023-03-23T05:04:25;94811.78;;;6.82;100.00
20622;BME280;10470;42.670;23.354;2023-03-23T05:06:51;94811.44;;;6.79;100.00
20622;BME280;10470;42.670;23.354;2023-03-23T05:09:17;94816.53;;;6.77;100.00
20622;BME280;10470;42.670;23.354;2023-03-23T05:11:42;94818.06;;;6.95;100.00
20622;BME280;10470;42.670;23.354;2023-03-23T05:14:08;94819.84;;;7.02;100.00
20622;BME280;10470;42.670;23.354;2023-03-23T05:16:33;94822.56;;;6.85;100.00
20622;BME280;10470;42.670;23.354;2023-03-23T05:19:01;94830.94;;;6.91;100.00
20622;BME280;10470;42.670;23.354;2023-03-23T05:21:27;94820.59;;;6.86;100.00
20622;BME280;10470;42.670;23.354;2023-03-23T05:23:53;94829.00;;;7.08;100.00
20622;BME280;10470;42.670;23.354;2023-03-23T05:26:22;94837.38;;;7.13;100.00
20622;BME280;10470;42.670;23.354;2023-03-23T05:28:54;94848.66;;;7.12;100.00
20622;BME280;10470;42.670;23.354;2023-03-23T05:31:21;94840.41;;;6.99;100.00
20622;BME280;10470;42.670;23.354;2023-03-23T05:33:48;94829.69;;;7.12;100.00
20622;BME280;10470;42.670;23.354;2023-03-23T05:36:13;94842.63;;;7.04;100.00
20622;BME280;10470;42.670;23.354;2023-03-23T05:38:40;94844.47;;;7.07;100.00
20622;BME280;10470;42.670;23.354;2023-03-23T05:41:10;94844.66;;;7.33;100.00
20622;BME280;10470;42.670;23.354;2023-03-23T05:43:36;94845.50;;;7.46;100.00
20622;BME280;10470;42.670;23.354;2023-03-23T05:46:02;94855.47;;;7.49;100.00
20622;BME280;10470;42.670;23.354;2023-03-23T05:48:28;94850.81;;;7.50;100.00
20622;BME280;10470;42.670;23.354;2023-03-23T05:50:53;94864.63;;;7.55;100.00
20622;BME280;10470;42.670;23.354;2023-03-23T05:53:19;94865.28;;;7.59;100.00
20622;BME280;10470;42.670;23.354;2023-03-23T05:55:44;94858.50;;;7.68;100.00
20622;BME280;10470;42.670;23.354;2023-03-23T05:58:10;94865.75;;;7.58;100.00
20622;BME280;10470;42.670;23.354;2023-03-23T06:00:36;94858.72;;;7.60;100.00
20622;BME280;10470;42.670;23.354;2023-03-23T06:03:01;94872.50;;;7.66;100.00
20622;BME280;10470;42.670;23.354;2023-03-23T06:05:27;94867.72;;;7.86;100.00
20622;BME280;10470;42.670;23.354;2023-03-23T06:07:54;94863.34;;;7.76;100.00
20622;BME280;10470;42.670;23.354;2023-03-23T06:10:20;94878.84;;;7.76;100.00
20622;BME280;10470;42.670;23.354;2023-03-23T06:12:46;94874.00;;;7.83;100.00
20622;BME280;10470;42.670;23.354;2023-03-23T06:15:12;94877.25;;;7.78;100.00
20622;BME280;10470;42.670;23.354;2023-03-23T06:17:38;94867.81;;;7.83;100.00
20622;BME280;10470;42.670;23.354;2023-03-23T06:20:04;94879.34;;;7.87;100.00
20622;BME280;10470;42.670;23.354;2023-03-23T06:22:41;94886.28;;;7.88;100.00
20622;BME280;10470;42.670;23.354;2023-03-23T06:25:08;94886.84;;;7.96;100.00
20622;BME280;10470;42.670;23.354;2023-03-23T06:27:34;94887.03;;;7.88;100.00
20622;BME280;10470;42.670;23.354;2023-03-23T06:30:01;94887.28;;;7.94;100.00
20622;BME280;10470;42.670;23.354;2023-03-23T06:32:30;94881.59;;;8.05;100.00
20622;BME280;10470;42.670;23.354;2023-03-23T06:34:56;94882.81;;;8.17;100.00
20622;BME280;10470;42.670;23.354;2023-03-23T06:37:22;94879.03;;;8.27;100.00
20622;BME280;10470;42.670;23.354;2023-03-23T06:39:48;94879.91;;;8.53;100.00
20622;BME280;10470;42.670;23.354;2023-03-23T06:42:14;94889.22;;;8.39;100.00
20622;BME280;10470;42.670;23.354;2023-03-23T06:44:39;94878.28;;;8.56;100.00
20622;BME280;10470;42.670;23.354;2023-03-23T06:47:05;94892.72;;;8.52;100.00
20622;BME280;10470;42.670;23.354;2023-03-23T06:49:31;94891.81;;;8.43;100.00
20622;BME280;10470;42.670;23.354;2023-03-23T06:51:57;94898.72;;;8.60;100.00
20622;BME280;10470;42.670;23.354;2023-03-23T06:54:22;94898.88;;;8.95;100.00
20622;BME280;10470;42.670;23.354;2023-03-23T06:56:48;94900.94;;;9.16;100.00
20622;BME280;10470;42.670;23.354;2023-03-23T06:59:13;94909.50;;;8.89;100.00
20622;BME280;10470;42.670;23.354;2023-03-23T07:01:39;94905.47;;;8.81;100.00
20622;BME280;10470;42.670;23.354;2023-03-23T07:04:05;94918.13;;;9.13;100.00
20622;BME280;10470;42.670;23.354;2023-03-23T07:06:31;94926.84;;;9.21;100.00
20622;BME280;10470;42.670;23.354;2023-03-23T07:08:57;94918.22;;;9.23;100.00
20622;BME280;10470;42.670;23.354;2023-03-23T07:11:22;94918.56;;;9.37;100.00
20622;BME280;10470;42.670;23.354;2023-03-23T07:13:47;94920.28;;;8.93;100.00
20622;BME280;10470;42.670;23.354;2023-03-23T07:16:15;94917.69;;;9.15;100.00
20622;BME280;10470;42.670;23.354;2023-03-23T07:18:41;94915.50;;;9.23;100.00
20622;BME280;10470;42.670;23.354;2023-03-23T07:21:07;94917.19;;;9.80;100.00
20622;BME280;10470;42.670;23.354;2023-03-23T07:23:32;94916.31;;;9.83;100.00
20622;BME280;10470;42.670;23.354;2023-03-23T07:25:58;94925.84;;;10.01;100.00
20622;BME280;10470;42.670;23.354;2023-03-23T07:28:23;94921.97;;;9.89;100.00
20622;BME280;10470;42.670;23.354;2023-03-23T07:30:49;94915.34;;;10.25;100.00
20622;BME280;10470;42.670;23.354;2023-03-23T07:33:14;94927.19;;;10.31;100.00
20622;BME280;10470;42.670;23.354;2023-03-23T07:35:40;94930.53;;;10.48;100.00
20622;BME280;10470;42.670;23.354;2023-03-23T07:38:06;94925.69;;;10.52;100.00
20622;BME280;10470;42.670;23.354;2023-03-23T07:40:32;94937.66;;;10.55;100.00
20622;BME280;10470;42.670;23.354;2023-03-23T07:43:02;94939.38;;;10.26;100.00
20622;BME280;10470;42.670;23.354;2023-03-23T07:45:28;94942.53;;;10.60;100.00
20622;BME280;10470;42.670;23.354;2023-03-23T07:47:54;94937.34;;;10.31;100.00
20622;BME280;10470;42.670;23.354;2023-03-23T07:50:20;94945.13;;;10.41;100.00
20622;BME280;10470;42.670;23.354;2023-03-23T07:52:48;94939.00;;;10.72;100.00
20622;BME280;10470;42.670;23.354;2023-03-23T07:55:13;94955.41;;;11.03;100.00
20622;BME280;10470;42.670;23.354;2023-03-23T07:57:46;94956.88;;;10.95;100.00
20622;BME280;10470;42.670;23.354;2023-03-23T08:00:14;94960.44;;;10.83;100.00
20622;BME280;10470;42.670;23.354;2023-03-23T08:02:48;94949.81;;;11.07;100.00
20622;BME280;10470;42.670;23.354;2023-03-23T08:05:15;94956.22;;;11.13;100.00
20622;BME280;10470;42.670;23.354;2023-03-23T08:07:41;94957.97;;;11.29;100.00
20622;BME280;10470;42.670;23.354;2023-03-23T08:10:09;94958.06;;;11.25;100.00
20622;BME280;10470;42.670;23.354;2023-03-23T08:12:38;94961.63;;;11.35;100.00
20622;BME280;10470;42.670;23.354;2023-03-23T08:15:06;94963.94;;;11.46;100.00
20622;BME280;10470;42.670;23.354;2023-03-23T08:17:32;94968.56;;;11.67;100.00
20622;BME280;10470;42.670;23.354;2023-03-23T08:19:58;94968.31;;;11.84;100.00
20622;BME280;10470;42.670;23.354;2023-03-23T08:22:24;94958.81;;;11.97;100.00
20622;BME280;10470;42.670;23.354;2023-03-23T08:24:50;94965.81;;;12.08;100.00
20622;BME280;10470;42.670;23.354;2023-03-23T08:27:15;94966.28;;;12.15;100.00
20622;BME280;10470;42.670;23.354;2023-03-23T08:29:44;94973.84;;;12.02;100.00
20622;BME280;10470;42.670;23.354;2023-03-23T08:32:09;94971.38;;;11.86;100.00
20622;BME280;10470;42.670;23.354;2023-03-23T08:34:35;94967.50;;;12.23;100.00
20622;BME280;10470;42.670;23.354;2023-03-23T08:37:01;94965.50;;;11.96;100.00
20622;BME280;10470;42.670;23.354;2023-03-23T08:39:26;94966.44;;;12.12;100.00
20622;BME280;10470;42.670;23.354;2023-03-23T08:41:53;94966.31;;;12.24;100.00
20622;BME280;10470;42.670;23.354;2023-03-23T08:44:18;94965.84;;;12.44;100.00
20622;BME280;10470;42.670;23.354;2023-03-23T08:46:44;94966.00;;;12.78;100.00
20622;BME280;10470;42.670;23.354;2023-03-23T08:49:10;94974.22;;;12.59;100.00
20622;BME280;10470;42.670;23.354;2023-03-23T08:51:35;94974.22;;;12.68;100.00
20622;BME280;10470;42.670;23.354;2023-03-23T08:54:02;94972.69;;;12.49;100.00
20622;BME280;10470;42.670;23.354;2023-03-23T08:56:27;94968.13;;;12.64;100.00
20622;BME280;10470;42.670;23.354;2023-03-23T08:58:53;94968.16;;;12.46;100.00
20622;BME280;10470;42.670;23.354;2023-03-23T09:01:19;94968.91;;;12.46;100.00
20622;BME280;10470;42.670;23.354;2023-03-23T09:03:44;94976.16;;;12.96;100.00
20622;BME280;10470;42.670;23.354;2023-03-23T09:06:10;94975.97;;;13.18;100.00
20622;BME280;10470;42.670;23.354;2023-03-23T09:08:38;94977.56;;;12.82;100.00
20622;BME280;10470;42.670;23.354;2023-03-23T09:11:06;94987.09;;;13.05;100.00
20622;BME280;10470;42.670;23.354;2023-03-23T09:13:33;94982.03;;;13.40;100.00
20622;BME280;10470;42.670;23.354;2023-03-23T09:15:59;94982.00;;;13.49;100.00
20622;BME280;10470;42.670;23.354;2023-03-23T09:18:24;94986.06;;;13.54;100.00
20622;BME280;10470;42.670;23.354;2023-03-23T09:20:51;94973.50;;;13.81;100.00
20622;BME280;10470;42.670;23.354;2023-03-23T09:23:17;94980.69;;;13.69;100.00
20622;BME280;10470;42.670;23.354;2023-03-23T09:25:43;94986.47;;;13.71;100.00
20622;BME280;10470;42.670;23.354;2023-03-23T09:28:09;94986.47;;;13.71;100.00
20622;BME280;10470;42.670;23.354;2023-03-23T09:30:36;94976.88;;;13.33;100.00
20622;BME280;10470;42.670;23.354;2023-03-23T09:33:03;94979.03;;;13.29;100.00
20622;BME280;10470;42.670;23.354;2023-03-23T09:35:31;94971.09;;;13.22;100.00
20622;BME280;10470;42.670;23.354;2023-03-23T09:37:58;94958.53;;;13.58;100.00
20622;BME280;10470;42.670;23.354;2023-03-23T09:40:32;94957.09;;;14.29;100.00
20622;BME280;10470;42.670;23.354;2023-03-23T09:43:06;94975.09;;;14.45;100.00
20622;BME280;10470;42.670;23.354;2023-03-23T09:45:43;94967.63;;;14.69;100.00
20622;BME280;10470;42.670;23.354;2023-03-23T09:50:48;94965.19;;;14.23;100.00
20622;BME280;10470;42.670;23.354;2023-03-23T09:53:18;94968.16;;;14.10;100.00
20622;BME280;10470;42.670;23.354;2023-03-23T09:55:47;94947.94;;;14.08;100.00
20622;BME280;10470;42.670;23.354;2023-03-23T09:58:22;94946.94;;;14.20;100.00
20622;BME280;10470;42.670;23.354;2023-03-23T10:01:07;94964.97;;;14.12;100.00
20622;BME280;10470;42.670;23.354;2023-03-23T10:03:39;94946.44;;;13.73;100.00
20622;BME280;10470;42.670;23.354;2023-03-23T10:06:10;94960.41;;;14.33;100.00
20622;BME280;10470;42.670;23.354;2023-03-23T10:08:40;94959.66;;;14.56;100.00
20622;BME280;10470;42.670;23.354;2023-03-23T10:11:16;94957.34;;;14.79;100.00
20622;BME280;10470;42.670;23.354;2023-03-23T10:17:14;94948.41;;;14.30;100.00
20622;BME280;10470;42.670;23.354;2023-03-23T10:19:53;94955.94;;;13.96;100.00
20622;BME280;10470;42.670;23.354;2023-03-23T10:22:27;94946.50;;;14.22;100.00
20622;BME280;10470;42.670;23.354;2023-03-23T10:27:38;94947.50;;;14.72;100.00
20622;BME280;10470;42.670;23.354;2023-03-23T10:30:22;94951.41;;;15.10;100.00
20622;BME280;10470;42.670;23.354;2023-03-23T10:33:09;94946.94;;;14.83;100.00
20622;BME280;10470;42.670;23.354;2023-03-23T10:35:39;94944.75;;;14.72;100.00
20622;BME280;10470;42.670;23.354;2023-03-23T10:38:22;94946.47;;;15.29;100.00
20622;BME280;10470;42.670;23.354;2023-03-23T10:40:58;94952.63;;;15.39;97.15
20622;BME280;10470;42.670;23.354;2023-03-23T10:43:24;94949.03;;;15.47;95.14
20622;BME280;10470;42.670;23.354;2023-03-23T10:45:57;94945.72;;;15.14;94.47
20622;BME280;10470;42.670;23.354;2023-03-23T10:48:37;94943.66;;;15.08;96.00
20622;BME280;10470;42.670;23.354;2023-03-23T10:51:05;94941.56;;;15.18;98.31
20622;BME280;10470;42.670;23.354;2023-03-23T10:53:37;94943.25;;;14.86;97.61
20622;BME280;10470;42.670;23.354;2023-03-23T10:56:04;94938.97;;;14.70;100.00
20622;BME280;10470;42.670;23.354;2023-03-23T10:58:32;94929.16;;;14.93;100.00
20622;BME280;10470;42.670;23.354;2023-03-23T11:01:00;94934.56;;;14.49;100.00
20622;BME280;10470;42.670;23.354;2023-03-23T11:06:03;94942.78;;;15.47;93.26
20622;BME280;10470;42.670;23.354;2023-03-23T11:08:33;94939.44;;;15.58;92.69
20622;BME280;10470;42.670;23.354;2023-03-23T11:11:10;94941.69;;;16.09;89.09
20622;BME280;10470;42.670;23.354;2023-03-23T11:13:43;94944.63;;;16.88;81.48
20622;BME280;10470;42.670;23.354;2023-03-23T11:16:10;94935.25;;;16.33;80.39
20622;BME280;10470;42.670;23.354;2023-03-23T11:18:42;94925.06;;;16.39;79.06
20622;BME280;10470;42.670;23.354;2023-03-23T11:21:12;94928.94;;;16.27;80.00
20622;BME280;10470;42.670;23.354;2023-03-23T11:23:46;94923.97;;;16.98;80.16
20622;BME280;10470;42.670;23.354;2023-03-23T11:26:16;94922.28;;;17.06;75.10
20622;BME280;10470;42.670;23.354;2023-03-23T11:31:36;94918.75;;;18.01;72.85
20622;BME280;10470;42.670;23.354;2023-03-23T11:34:14;94920.44;;;18.41;67.73
20622;BME280;10470;42.670;23.354;2023-03-23T11:36:46;94923.13;;;18.95;65.30
20622;BME280;10470;42.670;23.354;2023-03-23T11:41:44;94908.38;;;16.89;68.94
20622;BME280;10470;42.670;23.354;2023-03-23T11:44:11;94899.69;;;17.60;67.54
20622;BME280;10470;42.670;23.354;2023-03-23T11:46:46;94899.91;;;18.59;66.38
20622;BME280;10470;42.670;23.354;2023-03-23T11:54:47;94904.13;;;17.89;64.48
20622;BME280;10470;42.670;23.354;2023-03-23T11:57:16;94897.56;;;18.29;63.87
20622;BME280;10470;42.670;23.354;2023-03-23T11:59:42;94900.84;;;18.33;63.62
20622;BME280;10470;42.670;23.354;2023-03-23T12:18:55;94894.78;;;20.60;56.55
20622;BME280;10470;42.670;23.354;2023-03-23T12:32:57;94906.78;;;22.31;49.92
20622;BME280;10470;42.670;23.354;2023-03-23T12:43:24;94893.44;;;23.24;47.29
20622;BME280;10470;42.670;23.354;2023-03-23T12:48:41;94892.13;;;24.42;44.71
20622;BME280;10470;42.670;23.354;2023-03-23T12:59:42;94877.50;;;23.70;44.18
20622;BME280;10470;42.670;23.354;2023-03-23T13:04:55;94885.53;;;24.80;43.81
20622;BME280;10470;42.670;23.354;2023-03-23T13:07:28;94873.06;;;24.94;43.86
20622;BME280;10470;42.670;23.354;2023-03-23T13:12:22;94868.28;;;23.48;44.15
20622;BME280;10470;42.670;23.354;2023-03-23T13:15:02;94870.28;;;24.60;42.85
20622;BME280;10470;42.670;23.354;2023-03-23T13:17:43;94878.59;;;25.07;43.74
20622;BME280;10470;42.670;23.354;2023-03-23T13:28:33;94870.16;;;27.29;39.54
20622;BME280;10470;42.670;23.354;2023-03-23T13:31:13;94870.00;;;27.58;39.19
20622;BME280;10470;42.670;23.354;2023-03-23T13:33:46;94876.34;;;27.43;39.40
20622;BME280;10470;42.670;23.354;2023-03-23T13:36:13;94865.69;;;27.80;38.56
20622;BME280;10470;42.670;23.354;2023-03-23T13:38:46;94869.00;;;27.17;39.45
20622;BME280;10470;42.670;23.354;2023-03-23T13:41:14;94861.28;;;28.56;37.41
20622;BME280;10470;42.670;23.354;2023-03-23T13:43:42;94856.56;;;27.56;37.89
20622;BME280;10470;42.670;23.354;2023-03-23T13:54:24;94851.06;;;25.04;42.26
20622;BME280;10470;42.670;23.354;2023-03-23T13:57:00;94839.19;;;24.42;42.98
20622;BME280;10470;42.670;23.354;2023-03-23T14:01:57;94838.66;;;22.67;44.59
20622;BME280;10470;42.670;23.354;2023-03-23T14:04:30;94838.66;;;22.30;46.09
20622;BME280;10470;42.670;23.354;2023-03-23T14:07:09;94837.09;;;23.82;43.63
20622;BME280;10470;42.670;23.354;2023-03-23T14:09:41;94832.28;;;22.73;45.34
20622;BME280;10470;42.670;23.354;2023-03-23T14:12:19;94821.31;;;23.13;44.54
20622;BME280;10470;42.670;23.354;2023-03-23T14:14:48;94828.50;;;23.67;43.99
20622;BME280;10470;42.670;23.354;2023-03-23T14:17:17;94825.22;;;23.95;43.57
20622;BME280;10470;42.670;23.354;2023-03-23T14:19:48;94816.63;;;22.69;45.87
20622;BME280;10470;42.670;23.354;2023-03-23T14:22:24;94816.50;;;23.59;45.21
20622;BME280;10470;42.670;23.354;2023-03-23T14:24:50;94817.84;;;23.25;45.53
20622;BME280;10470;42.670;23.354;2023-03-23T14:27:18;94819.97;;;23.19;45.23
20622;BME280;10470;42.670;23.354;2023-03-23T14:29:44;94821.84;;;23.70;44.40
20622;BME280;10470;42.670;23.354;2023-03-23T14:32:14;94818.56;;;22.94;45.40
20622;BME280;10470;42.670;23.354;2023-03-23T14:34:41;94807.19;;;22.78;45.74
20622;BME280;10470;42.670;23.354;2023-03-23T14:37:15;94818.78;;;22.96;45.83
20622;BME280;10470;42.670;23.354;2023-03-23T14:39:45;94813.16;;;23.33;45.24
20622;BME280;10470;42.670;23.354;2023-03-23T14:42:14;94815.56;;;23.96;44.38
20622;BME280;10470;42.670;23.354;2023-03-23T14:44:45;94817.63;;;23.82;44.69
20622;BME280;10470;42.670;23.354;2023-03-23T14:47:21;94815.53;;;24.23;43.90
20622;BME280;10470;42.670;23.354;2023-03-23T14:49:52;94820.97;;;23.35;45.14
20622;BME280;10470;42.670;23.354;2023-03-23T14:52:18;94823.28;;;22.29;45.64